Time;durP1;ratioP1;P1;durP2;ratioP2;P2;SDS_P1;SDS_P2;PMS_P1;PMS_P2;Temp;Humidity;BMP_temperature;BMP_pressure;BME280_temperature;BME280_humidity;BME280_pressure;Samples;Min_cycle;Max_cycle;Signal;HPM_P1;HPM_P2
2022/12/05 00:02:21;;;;;;;3.53;2.10;;;19.90;60.80;;;;;;5045275;28;20055;-68
2022/12/05 00:04:46;;;;;;;2.97;1.90;;;19.90;60.80;;;;;;5048759;28;20017;-67
2022/12/05 00:07:12;;;;;;;3.08;2.20;;;19.90;60.80;;;;;;5048495;28;20029;-67
2022/12/05 00:09:38;;;;;;;4.35;2.20;;;19.90;60.90;;;;;;5049252;28;20037;-68
2022/12/05 00:12:04;;;;;;;3.13;2.15;;;19.90;60.70;;;;;;5043747;28;20025;-68
2022/12/05 00:14:29;;;;;;;3.33;2.30;;;19.90;60.70;;;;;;5050560;28;20021;-68
2022/12/05 00:16:55;;;;;;;3.08;1.95;;;19.90;60.70;;;;;;5052587;28;20104;-68
2022/12/05 00:19:21;;;;;;;3.45;2.25;;;19.90;60.60;;;;;;5055438;28;20040;-68
2022/12/05 00:21:47;;;;;;;2.70;1.90;;;19.90;60.70;;;;;;5057628;28;20033;-68
2022/12/05 00:24:15;;;;;;;3.40;2.10;;;19.90;60.60;;;;;;5046017;28;20046;-68
2022/12/05 00:26:41;;;;;;;3.58;2.20;;;19.90;61.20;;;;;;5051850;28;20020;-68
2022/12/05 00:29:07;;;;;;;3.65;2.10;;;19.90;60.60;;;;;;5038308;28;20388;-68
2022/12/05 00:31:34;;;;;;;2.88;2.00;;;19.90;60.70;;;;;;5028957;28;20025;-68
2022/12/05 00:34:01;;;;;;;2.92;2.00;;;19.90;60.60;;;;;;5046129;28;20499;-68
2022/12/05 00:36:29;;;;;;;3.28;2.30;;;19.90;60.50;;;;;;5033480;28;20492;-67
2022/12/05 00:38:57;;;;;;;3.08;2.10;;;19.90;60.50;;;;;;5045793;28;20507;-68
2022/12/05 00:41:24;;;;;;;3.15;1.80;;;19.90;60.50;;;;;;5051611;28;20108;-68
2022/12/05 00:43:51;;;;;;;2.80;1.92;;;19.90;60.50;;;;;;5057341;28;20032;-68
2022/12/05 00:46:19;;;;;;;2.80;1.88;;;19.90;60.50;;;;;;5057052;28;20025;-69
2022/12/05 00:48:46;;;;;;;3.13;2.10;;;19.90;60.50;;;;;;5053736;28;20021;-68
2022/12/05 00:51:17;;;;;;;3.10;2.03;;;19.90;60.50;;;;;;5052705;28;20033;-69
2022/12/05 00:53:44;;;;;;;3.20;2.30;;;19.80;60.40;;;;;;5049765;28;20033;-68
2022/12/05 00:56:12;;;;;;;3.17;2.20;;;19.80;60.50;;;;;;5056421;28;20495;-68
2022/12/05 00:58:39;;;;;;;3.00;2.10;;;19.80;60.50;;;;;;5057372;28;20017;-68
2022/12/05 01:01:31;;;;;;;3.17;2.03;;;19.80;60.50;;;;;;5058384;28;20036;-68
2022/12/05 01:03:59;;;;;;;3.00;2.13;;;19.80;60.40;;;;;;5057025;28;20048;-68
2022/12/05 01:06:25;;;;;;;2.78;1.90;;;19.80;60.40;;;;;;5058177;28;20642;-67
2022/12/05 01:08:53;;;;;;;2.60;1.80;;;19.80;60.50;;;;;;5065193;28;20083;-68
2022/12/05 01:11:20;;;;;;;2.92;2.03;;;19.80;60.40;;;;;;5042713;28;20438;-68
2022/12/05 01:13:46;;;;;;;3.58;2.10;;;19.80;60.40;;;;;;5052268;28;20013;-67
2022/12/05 01:16:26;;;;;;;2.70;1.80;;;19.80;60.40;;;;;;5058216;28;20079;-67
2022/12/05 01:18:52;;;;;;;2.80;2.00;;;19.80;60.40;;;;;;5044028;28;20053;-68
2022/12/05 01:21:18;;;;;;;2.58;1.80;;;19.80;60.40;;;;;;5043893;28;20060;-68
2022/12/05 01:23:44;;;;;;;2.58;1.80;;;19.80;60.40;;;;;;5057350;28;20704;-68
2022/12/05 01:26:12;;;;;;;2.70;1.90;;;19.80;60.40;;;;;;5053715;28;20055;-68
2022/12/05 01:28:39;;;;;;;3.25;2.00;;;19.80;60.40;;;;;;5047704;28;20532;-68
2022/12/05 01:31:08;;;;;;;3.35;2.25;;;19.80;60.40;;;;;;5053302;28;20028;-68
2022/12/05 01:33:35;;;;;;;2.78;2.00;;;19.80;60.40;;;;;;5052790;28;20063;-68
2022/12/05 01:36:02;;;;;;;3.25;2.17;;;19.70;60.30;;;;;;5047989;28;20025;-67
2022/12/05 01:38:28;;;;;;;2.70;1.80;;;19.70;60.30;;;;;;5040216;28;20488;-68
2022/12/05 01:41:04;;;;;;;3.13;2.10;;;19.70;60.30;;;;;;5055520;28;20029;-68
2022/12/05 01:43:30;;;;;;;3.63;1.90;;;19.70;60.30;;;;;;5052954;28;20124;-68
2022/12/05 01:45:56;;;;;;;2.72;2.00;;;19.70;60.30;;;;;;5057667;28;20539;-68
2022/12/05 01:48:31;;;;;;;2.67;1.70;;;19.70;60.30;;;;;;5054885;28;20243;-68
2022/12/05 01:50:58;;;;;;;3.15;2.03;;;19.70;60.30;;;;;;5055081;28;20456;-68
2022/12/05 01:53:25;;;;;;;3.03;1.90;;;19.70;60.20;;;;;;5040940;28;20511;-68
2022/12/05 01:55:51;;;;;;;3.63;2.35;;;19.70;60.20;;;;;;5049318;28;20024;-68
2022/12/05 01:58:17;;;;;;;2.70;1.90;;;19.70;60.20;;;;;;5050988;28;20025;-67
2022/12/05 02:00:43;;;;;;;3.00;1.92;;;19.70;60.20;;;;;;5056151;28;20399;-67
2022/12/05 02:03:16;;;;;;;2.80;1.90;;;19.70;60.20;;;;;;5058008;28;20515;-68
2022/12/05 02:05:43;;;;;;;2.90;1.80;;;19.70;60.20;;;;;;5038817;28;20037;-68
2022/12/05 02:08:10;;;;;;;2.95;2.00;;;19.70;60.20;;;;;;5048920;28;20381;-68
2022/12/05 02:10:49;;;;;;;2.78;1.92;;;19.70;60.20;;;;;;5051544;28;20037;-69
2022/12/05 02:13:36;;;;;;;3.38;1.95;;;19.70;60.20;;;;;;5048223;28;20040;-68
2022/12/05 02:16:26;;;;;;;3.58;1.83;;;19.70;60.20;;;;;;5057077;28;20048;-67
2022/12/05 02:18:52;;;;;;;3.00;1.77;;;19.70;60.10;;;;;;5051092;28;20030;-68
2022/12/05 02:21:39;;;;;;;2.85;1.85;;;19.60;60.10;;;;;;5040612;28;20032;-67
2022/12/05 02:24:32;;;;;;;2.80;2.13;;;19.70;60.20;;;;;;5046598;28;20108;-68
2022/12/05 02:27:16;;;;;;;2.72;1.95;;;19.60;60.10;;;;;;5046912;28;20028;-68
2022/12/05 02:30:03;;;;;;;2.80;2.05;;;19.60;60.10;;;;;;5057366;28;20107;-68
2022/12/05 02:32:31;;;;;;;2.97;1.85;;;19.60;60.10;;;;;;5050585;28;20127;-68
2022/12/05 02:35:20;;;;;;;3.23;1.90;;;19.60;60.00;;;;;;5051004;28;20092;-68
2022/12/05 02:38:04;;;;;;;3.17;2.17;;;19.60;60.10;;;;;;5051459;28;20033;-68
2022/12/05 02:40:39;;;;;;;2.78;2.00;;;19.60;60.10;;;;;;5043292;28;20070;-68
2022/12/05 02:43:21;;;;;;;3.08;2.08;;;19.60;60.00;;;;;;5047888;28;20033;-68
2022/12/05 02:45:51;;;;;;;2.85;2.00;;;19.60;60.00;;;;;;5054815;28;20468;-68
2022/12/05 02:48:18;;;;;;;2.63;1.90;;;19.60;60.10;;;;;;5052900;28;20476;-68
2022/12/05 02:50:46;;;;;;;3.03;1.90;;;19.60;60.00;;;;;;5058418;28;20476;-67
2022/12/05 02:53:14;;;;;;;2.88;2.00;;;19.60;60.10;;;;;;5045654;28;20036;-67
2022/12/05 02:55:42;;;;;;;3.33;2.13;;;19.60;60.10;;;;;;5037892;28;20495;-68
2022/12/05 02:58:13;;;;;;;3.15;2.10;;;19.60;60.10;;;;;;5056911;28;20033;-68
2022/12/05 03:00:42;;;;;;;2.90;1.98;;;19.60;60.10;;;;;;5055752;28;20020;-68
2022/12/05 03:03:15;;;;;;;2.92;2.00;;;19.60;60.10;;;;;;5047938;28;20029;-67
2022/12/05 03:06:08;;;;;;;3.00;2.00;;;19.60;60.10;;;;;;5041839;28;20548;-68
2022/12/05 03:08:41;;;;;;;2.72;1.88;;;19.60;60.10;;;;;;5045744;28;20032;-68
2022/12/05 03:11:07;;;;;;;2.70;1.77;;;19.60;60.10;;;;;;5051797;28;20332;-68
2022/12/05 03:13:40;;;;;;;3.10;1.90;;;19.60;60.10;;;;;;5042027;28;20025;-68
2022/12/05 03:16:13;;;;;;;2.85;1.90;;;19.60;60.20;;;;;;5047729;28;20029;-68
2022/12/05 03:18:49;;;;;;;3.00;2.17;;;19.50;60.10;;;;;;5057709;28;20028;-68
2022/12/05 03:21:32;;;;;;;2.80;1.95;;;19.50;60.20;;;;;;5059949;28;20029;-68
2022/12/05 03:24:07;;;;;;;3.13;2.10;;;19.50;60.20;;;;;;5050395;28;20032;-68
2022/12/05 03:26:54;;;;;;;2.92;1.90;;;19.50;60.20;;;;;;5042528;28;20538;-68
2022/12/05 03:29:44;;;;;;;3.00;2.10;;;19.50;60.20;;;;;;5042250;28;20063;-68
2022/12/05 03:32:20;;;;;;;3.03;2.08;;;19.50;60.20;;;;;;5048479;28;20078;-68
2022/12/05 03:35:04;;;;;;;2.85;1.90;;;19.50;60.20;;;;;;5052528;28;20124;-68
2022/12/05 03:37:33;;;;;;;2.90;2.00;;;19.50;60.30;;;;;;5054869;28;20029;-68
2022/12/05 03:40:21;;;;;;;3.17;2.10;;;19.50;60.30;;;;;;5050744;28;20095;-68
2022/12/05 03:42:56;;;;;;;2.67;2.10;;;19.50;60.30;;;;;;5047972;28;20025;-68
2022/12/05 03:45:29;;;;;;;2.70;1.80;;;19.50;60.30;;;;;;5053102;28;20107;-68
2022/12/05 03:48:08;;;;;;;3.08;1.90;;;19.50;60.20;;;;;;5056961;28;20529;-68
2022/12/05 03:50:36;;;;;;;2.72;2.00;;;19.50;60.20;;;;;;5048716;28;20031;-67
2022/12/05 03:53:09;;;;;;;3.13;2.00;;;19.50;60.20;;;;;;5055627;28;20053;-68
2022/12/05 03:55:38;;;;;;;2.92;2.00;;;19.50;60.20;;;;;;5051150;28;20535;-68
2022/12/05 03:58:16;;;;;;;;;;;19.50;60.30;;;;;;5036553;28;20028;-67
2022/12/05 04:00:46;;;;;;;2.90;1.98;;;19.50;60.30;;;;;;5047323;28;20075;-67
2022/12/05 04:03:19;;;;;;;2.72;1.95;;;19.50;60.40;;;;;;5052260;28;20025;-68
2022/12/05 04:05:55;;;;;;;2.72;2.05;;;19.50;60.40;;;;;;5055472;28;20073;-68
2022/12/05 04:08:28;;;;;;;3.15;2.22;;;19.40;60.40;;;;;;5021066;28;20108;-68
2022/12/05 04:10:59;;;;;;;3.00;2.22;;;19.40;60.90;;;;;;5050310;28;20129;-68
2022/12/05 04:13:39;;;;;;;3.10;2.10;;;19.40;60.40;;;;;;5049820;28;20123;-68
2022/12/05 04:19:14;;;;;;;2.80;1.90;;;19.40;60.50;;;;;;5046233;28;20082;-68
2022/12/05 04:21:44;;;;;;;3.00;2.10;;;19.40;60.60;;;;;;5044184;28;20036;-67
2022/12/05 04:27:26;;;;;;;2.80;1.90;;;19.40;60.60;;;;;;5052634;28;20108;-68
2022/12/05 04:30:13;;;;;;;2.95;2.08;;;19.40;60.60;;;;;;5052128;28;20029;-68
2022/12/05 04:32:44;;;;;;;3.03;2.03;;;19.40;60.60;;;;;;5042989;28;20804;-68
2022/12/05 04:35:32;;;;;;;2.67;1.83;;;19.40;60.60;;;;;;5051368;28;20033;-68
2022/12/05 04:38:04;;;;;;;2.80;2.00;;;19.40;60.60;;;;;;5053895;28;20079;-67
2022/12/05 04:40:54;;;;;;;2.53;1.80;;;19.40;60.60;;;;;;5044533;28;20393;-68
2022/12/05 04:43:23;;;;;;;2.58;1.75;;;19.40;60.60;;;;;;5048682;28;20029;-69
2022/12/05 04:45:51;;;;;;;2.58;1.70;;;19.40;60.60;;;;;;5034375;28;20063;-68
2022/12/05 04:48:18;;;;;;;2.20;1.48;;;19.40;60.60;;;;;;5049914;28;20473;-68
2022/12/05 04:50:50;;;;;;;2.22;1.52;;;19.40;60.70;;;;;;5039682;28;20049;-68
2022/12/05 04:53:17;;;;;;;2.42;1.80;;;19.40;60.70;;;;;;5051067;28;20045;-68
2022/12/05 04:55:47;;;;;;;2.53;1.75;;;19.40;60.70;;;;;;5046564;28;20876;-68
2022/12/05 04:58:24;;;;;;;3.10;2.00;;;19.40;60.70;;;;;;5043353;28;20120;-68
2022/12/05 05:00:53;;;;;;;2.38;1.70;;;19.40;60.70;;;;;;5045177;28;20036;-67
2022/12/05 05:03:35;;;;;;;2.53;1.87;;;19.40;60.80;;;;;;5038584;28;20036;-67
2022/12/05 05:06:01;;;;;;;2.97;1.80;;;19.40;60.70;;;;;;5056621;28;20439;-67
2022/12/05 05:08:28;;;;;;;2.60;1.70;;;19.40;60.80;;;;;;5047840;28;20026;-67
2022/12/05 05:11:00;;;;;;;2.20;1.50;;;19.40;60.70;;;;;;5052345;28;20031;-68
2022/12/05 05:13:26;;;;;;;2.30;1.60;;;19.40;60.80;;;;;;5049914;28;20025;-67
2022/12/05 05:15:51;;;;;;;2.95;1.90;;;19.40;60.80;;;;;;5049246;28;20031;-67
2022/12/05 05:18:17;;;;;;;2.67;1.80;;;19.40;60.80;;;;;;5035187;28;20037;-67
2022/12/05 05:20:42;;;;;;;2.47;1.60;;;19.40;60.80;;;;;;5045868;28;20033;-67
2022/12/05 05:23:08;;;;;;;2.95;2.00;;;19.40;60.90;;;;;;5051583;28;20057;-70
2022/12/05 05:25:34;;;;;;;2.70;1.75;;;19.40;60.80;;;;;;5047547;28;20036;-68
2022/12/05 05:27:59;;;;;;;2.38;1.70;;;19.40;60.80;;;;;;5050866;28;20030;-69
2022/12/05 05:30:25;;;;;;;2.60;1.90;;;19.40;60.90;;;;;;5062328;28;20025;-69
2022/12/05 05:32:51;;;;;;;2.58;1.80;;;19.40;60.80;;;;;;5057070;28;20029;-69
2022/12/05 05:35:17;;;;;;;2.83;1.95;;;19.40;60.80;;;;;;5049084;28;20051;-68
2022/12/05 05:37:43;;;;;;;2.83;1.77;;;19.40;60.80;;;;;;5047554;28;20032;-69
2022/12/05 05:40:11;;;;;;;2.78;1.95;;;19.40;60.90;;;;;;5055916;28;20374;-68
2022/12/05 05:42:42;;;;;;;3.08;1.77;;;19.40;60.90;;;;;;5054147;28;20025;-68
2022/12/05 05:45:09;;;;;;;2.80;1.83;;;19.40;60.90;;;;;;5057814;28;20353;-68
2022/12/05 05:47:34;;;;;;;2.90;2.00;;;19.40;60.90;;;;;;5045000;28;20445;-68
2022/12/05 05:50:00;;;;;;;2.58;1.83;;;19.40;60.90;;;;;;5041776;28;20096;-68
2022/12/05 05:52:26;;;;;;;2.40;1.70;;;19.40;60.90;;;;;;5046190;28;20032;-66
2022/12/05 05:54:51;;;;;;;2.85;2.05;;;19.40;61.00;;;;;;5051023;28;20530;-69
2022/12/05 05:57:17;;;;;;;3.10;2.05;;;19.40;60.90;;;;;;5048535;28;20045;-68
2022/12/05 05:59:42;;;;;;;2.78;2.03;;;19.40;61.00;;;;;;5049116;28;20033;-67
2022/12/05 06:02:08;;;;;;;2.90;1.80;;;19.40;60.90;;;;;;5027013;28;20040;-69
2022/12/05 06:04:34;;;;;;;2.25;1.58;;;19.40;60.90;;;;;;5049762;28;20033;-69
2022/12/05 06:07:00;;;;;;;3.33;2.28;;;19.30;60.90;;;;;;5051855;28;20021;-68
2022/12/05 06:09:26;;;;;;;2.42;1.70;;;19.40;61.00;;;;;;5047652;28;20018;-69
2022/12/05 06:11:51;;;;;;;2.90;1.95;;;19.40;61.00;;;;;;5047375;28;20028;-69
2022/12/05 06:14:17;;;;;;;2.65;2.00;;;19.40;61.00;;;;;;5046964;28;20084;-68
2022/12/05 06:16:43;;;;;;;3.08;1.98;;;19.40;61.00;;;;;;5047348;28;20035;-69
2022/12/05 06:19:08;;;;;;;2.90;1.90;;;19.40;61.00;;;;;;5059572;28;20495;-69
2022/12/05 06:21:34;;;;;;;2.58;1.83;;;19.40;61.00;;;;;;5037186;28;20400;-67
2022/12/05 06:23:59;;;;;;;2.60;1.80;;;19.40;61.00;;;;;;5034617;28;20038;-67
2022/12/05 06:26:25;;;;;;;2.50;1.80;;;19.40;61.00;;;;;;5047597;28;20025;-67
2022/12/05 06:28:51;;;;;;;2.50;1.80;;;19.40;61.00;;;;;;5034171;28;20395;-65
2022/12/05 06:31:19;;;;;;;2.55;1.80;;;19.40;61.00;;;;;;5049647;28;20021;-67
2022/12/05 06:33:45;;;;;;;2.78;1.88;;;19.40;61.00;;;;;;5055887;28;20115;-67
2022/12/05 06:36:14;;;;;;;3.00;1.95;;;19.40;61.00;;;;;;5048049;28;20158;-67
2022/12/05 06:38:40;;;;;;;;;;;19.40;61.00;;;;;;5048454;28;20515;-67
2022/12/05 06:41:07;;;;;;;2.63;1.88;;;19.40;61.60;;;;;;5043146;28;19905;-67
2022/12/05 06:43:33;;;;;;;2.80;1.85;;;19.40;61.00;;;;;;5055695;28;20499;-67
2022/12/05 06:46:03;;;;;;;2.63;1.75;;;19.40;61.00;;;;;;5059623;28;20073;-67
2022/12/05 06:48:29;;;;;;;2.45;1.75;;;19.40;61.00;;;;;;5052683;28;20021;-67
2022/12/05 06:50:54;;;;;;;2.75;1.83;;;19.40;61.00;;;;;;5049811;28;20038;-66
2022/12/05 06:53:20;;;;;;;2.60;1.80;;;19.40;61.00;;;;;;5028776;28;20028;-67
2022/12/05 06:55:57;;;;;;;2.63;1.60;;;19.40;61.00;;;;;;5043471;28;20432;-67
2022/12/05 06:58:23;;;;;;;3.00;1.85;;;19.40;61.00;;;;;;5032866;28;20496;-66
2022/12/05 07:03:33;;;;;;;2.92;1.90;;;19.30;61.00;;;;;;5053785;28;20043;-67
2022/12/05 07:06:00;;;;;;;3.00;2.10;;;19.40;61.00;;;;;;5050295;28;20036;-66
2022/12/05 07:08:26;;;;;;;2.60;1.70;;;19.40;61.00;;;;;;5058865;28;20108;-67
2022/12/05 07:10:52;;;;;;;2.58;1.83;;;19.30;60.90;;;;;;5037726;28;20175;-67
2022/12/05 07:13:18;;;;;;;2.50;1.80;;;19.30;60.90;;;;;;5048074;28;20047;-67
2022/12/05 07:15:48;;;;;;;2.75;1.70;;;19.30;60.90;;;;;;5049319;28;20493;-67
2022/12/05 07:18:15;;;;;;;2.83;1.70;;;19.40;61.00;;;;;;5053019;28;20078;-67
2022/12/05 07:20:42;;;;;;;2.50;1.73;;;19.30;60.90;;;;;;5051170;28;20079;-67
2022/12/05 07:23:08;;;;;;;3.08;1.90;;;19.30;60.90;;;;;;5048930;28;20459;-66
2022/12/05 07:25:33;;;;;;;2.53;1.73;;;19.30;61.00;;;;;;5056519;28;20024;-66
2022/12/05 07:27:59;;;;;;;2.83;1.90;;;19.40;60.90;;;;;;5049275;28;20053;-67
2022/12/05 07:30:24;;;;;;;3.72;2.10;;;19.30;60.90;;;;;;5054865;28;20031;-67
2022/12/05 07:32:50;;;;;;;2.70;1.85;;;19.30;60.90;;;;;;5058893;28;20027;-66
2022/12/05 07:35:16;;;;;;;2.75;1.70;;;19.30;60.90;;;;;;5056830;28;20095;-66
2022/12/05 07:37:41;;;;;;;2.70;1.80;;;19.30;60.90;;;;;;5048907;28;20384;-66
2022/12/05 07:40:07;;;;;;;2.72;1.70;;;19.30;61.00;;;;;;5055165;28;20080;-66
2022/12/05 07:42:33;;;;;;;3.05;1.80;;;19.30;60.90;;;;;;5057885;28;20033;-67
2022/12/05 07:44:59;;;;;;;2.65;1.70;;;19.30;60.90;;;;;;5050869;28;20507;-67
2022/12/05 07:47:24;;;;;;;2.80;1.70;;;19.30;60.90;;;;;;5054669;28;20130;-67
2022/12/05 07:49:50;;;;;;;3.22;1.80;;;19.30;60.90;;;;;;5055114;28;20491;-66
2022/12/05 07:52:16;;;;;;;3.25;2.03;;;19.40;60.90;;;;;;5034695;28;20520;-67
2022/12/05 07:54:41;;;;;;;2.72;1.70;;;19.30;60.90;;;;;;5048264;28;20038;-66
2022/12/05 07:57:07;;;;;;;2.80;1.88;;;19.30;60.90;;;;;;5045741;28;20051;-67
2022/12/05 07:59:32;;;;;;;2.30;1.50;;;19.40;61.00;;;;;;5045537;28;20033;-67
2022/12/05 08:01:58;;;;;;;2.28;1.80;;;19.30;60.80;;;;;;5055423;28;20381;-67
2022/12/05 08:04:24;;;;;;;2.88;1.70;;;19.30;60.90;;;;;;5056080;28;20025;-66
2022/12/05 08:06:49;;;;;;;2.83;1.73;;;19.30;60.90;;;;;;5054439;28;20021;-66
2022/12/05 08:09:15;;;;;;;2.47;1.70;;;19.30;60.80;;;;;;5050921;28;20451;-67
2022/12/05 08:11:41;;;;;;;2.80;1.88;;;19.30;60.90;;;;;;5049736;28;20059;-68
2022/12/05 08:14:08;;;;;;;3.00;1.80;;;19.30;60.90;;;;;;5047956;28;20105;-66
2022/12/05 08:16:33;;;;;;;2.70;1.65;;;19.30;60.80;;;;;;5048334;28;20048;-67
2022/12/05 08:19:05;;;;;;;2.45;1.70;;;19.30;60.90;;;;;;5053981;28;20026;-66
2022/12/05 08:21:31;;;;;;;2.80;1.73;;;19.30;60.80;;;;;;5049722;28;20049;-66
2022/12/05 08:23:57;;;;;;;3.00;2.00;;;19.30;60.80;;;;;;5051324;28;20033;-67
2022/12/05 08:26:25;;;;;;;2.97;1.90;;;19.30;60.90;;;;;;5050839;28;20032;-66
2022/12/05 08:28:59;;;;;;;2.90;1.80;;;19.30;60.80;;;;;;5052836;28;20021;-66
2022/12/05 08:31:27;;;;;;;2.47;1.58;;;19.30;60.80;;;;;;5053457;28;20140;-66
2022/12/05 08:33:56;;;;;;;2.63;1.80;;;19.30;60.80;;;;;;5038998;28;20029;-66
2022/12/05 08:36:21;;;;;;;2.78;1.77;;;19.30;60.90;;;;;;5038716;28;20025;-67
2022/12/05 08:38:47;;;;;;;2.30;1.50;;;19.30;61.40;;;;;;5039513;28;20079;-67
2022/12/05 08:41:15;;;;;;;3.42;1.65;;;19.30;60.80;;;;;;5046886;28;20105;-66
2022/12/05 08:43:42;;;;;;;2.33;1.70;;;19.30;60.80;;;;;;5041249;28;20079;-66
2022/12/05 08:46:08;;;;;;;2.20;1.58;;;19.30;60.80;;;;;;5045913;28;20426;-66
2022/12/05 08:48:35;;;;;;;2.40;1.70;;;19.30;60.80;;;;;;5046948;28;20032;-67
2022/12/05 08:51:09;;;;;;;2.20;1.60;;;19.30;60.80;;;;;;5048119;28;20021;-67
2022/12/05 08:53:36;;;;;;;2.72;1.75;;;19.30;60.80;;;;;;5046948;28;20040;-66
2022/12/05 08:56:03;;;;;;;2.60;1.85;;;19.30;60.80;;;;;;5045066;28;20052;-67
2022/12/05 08:58:29;;;;;;;2.63;1.75;;;19.30;60.70;;;;;;5038263;28;20397;-66
2022/12/05 09:01:04;;;;;;;2.85;1.85;;;19.30;60.80;;;;;;5037470;28;20052;-67
2022/12/05 09:03:30;;;;;;;3.20;1.80;;;19.30;60.80;;;;;;5047633;28;20025;-67
2022/12/05 09:06:30;;;;;;;2.70;1.70;;;19.30;60.80;;;;;;5046871;28;20045;-66
2022/12/05 09:08:58;;;;;;;2.30;1.70;;;19.30;60.80;;;;;;5044804;28;20052;-67
2022/12/05 09:11:27;;;;;;;2.53;1.77;;;19.30;60.80;;;;;;5045029;28;20021;-67
2022/12/05 09:13:54;;;;;;;2.50;1.70;;;19.30;60.70;;;;;;5039880;28;20041;-67
2022/12/05 09:16:23;;;;;;;2.80;1.70;;;19.30;60.70;;;;;;5055574;28;20395;-67
2022/12/05 09:18:49;;;;;;;2.67;1.80;;;19.30;60.70;;;;;;5022247;28;20034;-66
2022/12/05 09:21:21;;;;;;;2.50;1.60;;;19.30;60.80;;;;;;5044437;28;20072;-67
2022/12/05 09:23:48;;;;;;;2.80;1.80;;;19.30;60.70;;;;;;5044414;28;20480;-67
2022/12/05 09:26:16;;;;;;;2.75;1.75;;;19.30;60.70;;;;;;5050171;28;20053;-66
2022/12/05 09:28:43;;;;;;;3.15;1.70;;;19.30;60.70;;;;;;5056942;28;20412;-66
2022/12/05 09:31:11;;;;;;;2.20;1.60;;;19.30;60.70;;;;;;5047284;28;20030;-67
2022/12/05 09:33:37;;;;;;;2.90;1.80;;;19.30;60.70;;;;;;5046338;28;20036;-67
2022/12/05 09:36:05;;;;;;;2.88;1.88;;;19.30;60.70;;;;;;5043745;28;20127;-66
2022/12/05 09:38:32;;;;;;;2.40;1.50;;;19.30;60.70;;;;;;5055663;28;20457;-67
2022/12/05 09:42:03;;;;;;;2.90;1.80;;;19.30;60.70;;;;;;5054130;28;20104;-67
2022/12/05 09:44:43;;;;;;;2.53;1.75;;;19.30;61.30;;;;;;5052385;28;20100;-67
2022/12/05 09:47:08;;;;;;;2.70;1.77;;;19.30;60.80;;;;;;5054850;28;20079;-66
2022/12/05 09:49:41;;;;;;;3.17;1.77;;;19.30;60.70;;;;;;5056019;28;20022;-67
2022/12/05 09:52:16;;;;;;;3.08;1.88;;;19.30;60.70;;;;;;5048214;28;20033;-66
2022/12/05 09:54:42;;;;;;;2.42;1.63;;;19.30;60.70;;;;;;5052908;28;20389;-67
2022/12/05 09:57:10;;;;;;;2.72;1.80;;;19.30;60.70;;;;;;5052714;28;20033;-67
2022/12/05 09:59:36;;;;;;;2.20;1.60;;;19.30;60.70;;;;;;5056034;28;20436;-67
2022/12/05 10:02:06;;;;;;;2.78;1.48;;;19.30;60.60;;;;;;5038598;28;20029;-67
2022/12/05 10:04:34;;;;;;;2.70;1.70;;;19.30;60.70;;;;;;5044062;28;20047;-67
2022/12/05 10:07:12;;;;;;;2.17;1.42;;;19.30;60.70;;;;;;5051012;28;20017;-67
2022/12/05 10:09:56;;;;;;;2.67;1.70;;;19.30;60.70;;;;;;5047107;28;20029;-67
2022/12/05 10:12:46;;;;;;;2.30;1.60;;;19.30;60.70;;;;;;5052607;28;20036;-67
2022/12/05 10:15:14;;;;;;;3.50;1.80;;;19.30;60.70;;;;;;5059012;28;20025;-67
2022/12/05 10:17:45;;;;;;;2.20;1.42;;;19.30;60.60;;;;;;5050993;28;20036;-67
2022/12/05 10:20:13;;;;;;;2.33;1.60;;;19.30;60.60;;;;;;5051730;28;20025;-67
2022/12/05 10:22:51;;;;;;;2.30;1.60;;;19.30;60.60;;;;;;5053045;28;20472;-67
2022/12/05 10:25:20;;;;;;;2.03;1.52;;;19.30;60.60;;;;;;5054559;28;20535;-67
2022/12/05 10:27:55;;;;;;;2.65;1.65;;;19.30;60.70;;;;;;5053792;28;20552;-67
2022/12/05 10:30:23;;;;;;;2.33;1.55;;;19.30;60.60;;;;;;5053851;28;20060;-67
2022/12/05 10:32:57;;;;;;;2.60;1.63;;;19.30;60.60;;;;;;5049634;28;20358;-67
2022/12/05 10:35:32;;;;;;;2.42;1.70;;;19.30;60.60;;;;;;5047224;28;20115;-68
2022/12/05 10:38:03;;;;;;;2.47;1.70;;;19.30;60.60;;;;;;5056617;28;20476;-68
2022/12/05 10:40:42;;;;;;;2.58;1.70;;;19.30;60.60;;;;;;5046871;28;20041;-67
2022/12/05 10:43:13;;;;;;;2.90;1.80;;;19.30;60.60;;;;;;5048579;28;20042;-67
2022/12/05 10:45:43;;;;;;;2.00;1.45;;;19.30;60.60;;;;;;5052286;28;20029;-67
2022/12/05 10:48:11;;;;;;;2.83;1.60;;;19.30;60.60;;;;;;5056631;28;20080;-67
2022/12/05 10:50:38;;;;;;;2.40;1.60;;;19.30;60.60;;;;;;5040434;28;20043;-66
2022/12/05 10:53:05;;;;;;;2.40;1.77;;;19.30;60.60;;;;;;5045712;28;20045;-66
2022/12/05 10:55:39;;;;;;;2.40;1.60;;;19.30;60.60;;;;;;5056245;28;20457;-66
2022/12/05 10:58:10;;;;;;;3.05;1.60;;;19.30;60.60;;;;;;5048608;28;20029;-66
2022/12/05 11:00:40;;;;;;;2.60;1.70;;;19.30;60.60;;;;;;5058199;28;20100;-66
2022/12/05 11:03:38;;;;;;;2.40;1.70;;;19.30;60.60;;;;;;5048856;28;20465;-66
2022/12/05 11:06:29;;;;;;;2.75;1.67;;;19.30;60.60;;;;;;5059042;28;20501;-66
2022/12/05 11:09:04;;;;;;;2.72;1.73;;;19.30;60.60;;;;;;5053148;28;20066;-67
2022/12/05 11:11:32;;;;;;;2.45;1.63;;;19.30;60.60;;;;;;5055748;28;20025;-66
2022/12/05 11:14:21;;;;;;;2.65;1.70;;;19.30;60.60;;;;;;5056930;28;20541;-66
2022/12/05 11:17:02;;;;;;;2.65;1.75;;;19.30;60.60;;;;;;5049701;28;20499;-66
2022/12/05 11:19:34;;;;;;;2.75;1.75;;;19.30;60.50;;;;;;5051066;28;20035;-66
2022/12/05 11:22:01;;;;;;;2.70;1.63;;;19.30;60.50;;;;;;5051518;28;20488;-67
2022/12/05 11:24:33;;;;;;;2.40;1.52;;;19.30;60.50;;;;;;5050251;28;20056;-66
2022/12/05 11:27:19;;;;;;;3.25;1.60;;;19.30;60.50;;;;;;5049876;28;20028;-67
2022/12/05 11:30:02;;;;;;;2.80;1.55;;;19.30;60.40;;;;;;5056354;28;20017;-67
2022/12/05 11:32:31;;;;;;;3.00;1.80;;;19.30;60.50;;;;;;5058408;28;20044;-67
2022/12/05 11:35:05;;;;;;;2.10;1.60;;;19.30;60.40;;;;;;5046772;28;20035;-67
2022/12/05 11:37:36;;;;;;;2.45;1.40;;;19.30;60.40;;;;;;5049337;28;20104;-66
2022/12/05 11:40:11;;;;;;;2.45;1.77;;;19.30;60.40;;;;;;5043937;28;20594;-66
2022/12/05 11:42:47;;;;;;;2.50;1.52;;;19.30;60.40;;;;;;5050145;28;20567;-67
2022/12/05 11:45:39;;;;;;;2.40;1.50;;;19.30;60.30;;;;;;5047826;28;20029;-67
2022/12/05 11:48:35;;;;;;;2.47;1.60;;;19.30;60.30;;;;;;5013371;28;20041;-67
2022/12/05 11:51:07;;;;;;;2.10;1.30;;;19.30;60.30;;;;;;5051972;28;20032;-66
2022/12/05 11:53:50;;;;;;;3.10;1.60;;;19.30;60.30;;;;;;5034228;28;20029;-67
2022/12/05 11:56:21;;;;;;;2.95;1.85;;;19.40;60.60;;;;;;5039905;28;20472;-67
2022/12/05 11:59:08;;;;;;;2.45;1.55;;;19.30;60.80;;;;;;5050196;28;20032;-65
2022/12/05 12:02:00;;;;;;;2.97;1.60;;;19.30;60.60;;;;;;5056505;28;20506;-67
2022/12/05 12:04:26;;;;;;;2.13;1.40;;;19.30;60.30;;;;;;5008238;28;20776;-67
2022/12/05 12:07:13;;;;;;;2.20;1.40;;;19.40;60.30;;;;;;5049724;28;20052;-68
2022/12/05 12:10:09;;;;;;;3.10;1.50;;;19.40;60.30;;;;;;5046442;28;20444;-67
2022/12/05 12:12:53;;;;;;;2.33;1.55;;;19.40;60.20;;;;;;5027280;28;20021;-67
2022/12/05 12:15:28;;;;;;;2.65;1.80;;;19.40;60.20;;;;;;5045586;28;20468;-67
2022/12/05 12:18:07;;;;;;;2.80;1.60;;;19.40;60.70;;;;;;5050188;28;20017;-66
2022/12/05 12:20:35;;;;;;;2.08;1.50;;;19.30;60.10;;;;;;5044378;28;20037;-67
2022/12/05 12:23:13;;;;;;;2.78;1.65;;;19.40;60.20;;;;;;5047049;28;20030;-67
2022/12/05 12:25:42;;;;;;;2.22;1.48;;;19.40;60.10;;;;;;5038136;28;20121;-68
2022/12/05 12:28:38;;;;;;;2.60;1.70;;;19.40;60.10;;;;;;5047242;28;20341;-67
2022/12/05 12:31:41;;;;;;;2.25;1.50;;;19.40;60.10;;;;;;5046150;28;20040;-68
2022/12/05 12:34:28;;;;;;;2.47;1.45;;;19.40;60.10;;;;;;5045276;28;20020;-67
2022/12/05 12:37:16;;;;;;;2.28;1.45;;;19.40;60.10;;;;;;5047788;28;20420;-68
2022/12/05 12:39:42;;;;;;;2.87;1.60;;;19.30;60.00;;;;;;5050108;28;20021;-67
2022/12/05 12:42:19;;;;;;;3.13;1.70;;;19.40;60.10;;;;;;5048529;28;20264;-67
2022/12/05 12:44:54;;;;;;;3.20;1.42;;;19.40;60.20;;;;;;5035404;28;20033;-67
2022/12/05 12:47:38;;;;;;;2.30;1.35;;;19.30;60.10;;;;;;5049171;28;20508;-67
2022/12/05 12:50:18;;;;;;;3.42;1.80;;;19.40;60.20;;;;;;5051341;28;20030;-67
2022/12/05 12:53:19;;;;;;;2.50;1.60;;;19.40;60.20;;;;;;5048920;28;20441;-69
2022/12/05 12:56:02;;;;;;;2.83;1.60;;;19.40;60.10;;;;;;5026427;28;20108;-68
2022/12/05 12:58:33;;;;;;;2.65;1.60;;;19.40;60.20;;;;;;5048868;28;20099;-68
2022/12/05 13:01:09;;;;;;;2.75;1.70;;;19.40;60.20;;;;;;5034285;28;20360;-67
2022/12/05 13:03:52;;;;;;;3.10;1.67;;;19.40;60.20;;;;;;5040484;28;20040;-68
2022/12/05 13:06:35;;;;;;;2.58;1.67;;;19.40;60.30;;;;;;5049488;28;20024;-68
2022/12/05 13:09:06;;;;;;;2.75;1.58;;;19.40;60.40;;;;;;5056012;28;20472;-67
2022/12/05 13:11:37;;;;;;;4.40;2.05;;;19.30;60.40;;;;;;5045765;28;20114;-68
2022/12/05 13:14:13;;;;;;;2.65;1.55;;;19.40;60.40;;;;;;5051134;28;20477;-68
2022/12/05 13:16:41;;;;;;;2.47;1.48;;;19.40;60.40;;;;;;5040912;28;20472;-67
2022/12/05 13:19:22;;;;;;;2.40;1.48;;;19.30;60.40;;;;;;5044225;28;20136;-68
2022/12/05 13:21:47;;;;;;;4.70;1.70;;;19.40;60.40;;;;;;5048818;28;20519;-69